Nuno Pinto — CURJ9 — position and weather

sailwx.info

Track history (hours):
 
Tides and Currents Weather Stations Pressure Air Temp Water Temp Dewpoint Dewpoint Depression Visibility Wind Speed Wind Dir Waves Ship Positions

Nuno Pinto

Last reported at 2018-Jun-24 08:30 UTC. Time now 2018-Jun-24 12:34 UTC.
Position N 36°58' W 009°08'.

Length 23 m.

Type: Fishing. MMSI: 263401250.

Date/timePositionNaut miles runAvg speedWind from/ knotsBaromVisibWave heightAir tempDewpointWater temp
2018-Jun-24 08:30N 36°58' W 009°08'3 3.0
2018-Jun-24 07:37N 36°56' W 009°07'1 2.9
2018-Jun-24 07:26N 36°55' W 009°07'3 2.9
2018-Jun-24 06:22N 36°52' W 009°07'1 2.9
2018-Jun-24 05:59N 36°51' W 009°07'2 2.9
2018-Jun-24 05:23N 36°50' W 009°08'8 0.2
2018-Jun-22 20:35N 36°58' W 009°08'0 3.2
2018-Jun-22 20:29N 36°57' W 009°08'5 0.3
2018-Jun-21 23:42N 36°60' W 009°02'2 7.9
2018-Jun-21 23:30N 36°59' W 008°60'4 6.5
2018-Jun-21 22:55N 37°01' W 008°56'0 0.0
2018-Jun-21 18:43N 37°01' W 008°55'11 0.8
2018-Jun-21 05:03N 36°57' W 009°08'0 2.9
2018-Jun-21 04:54N 36°56' W 009°08'1 2.8
2018-Jun-21 04:30N 36°55' W 009°08'1 2.9
2018-Jun-21 03:59N 36°54' W 009°08'1 2.9
2018-Jun-21 03:29N 36°52' W 009°08'2 3.1
2018-Jun-21 02:56N 36°50' W 009°09'2 2.8
2018-Jun-21 02:07N 36°48' W 009°09'1 3.3
2018-Jun-21 01:52N 36°47' W 009°09'51 1.2
2018-Jun-19 09:07N 36°49' W 008°05'0 3.0
2018-Jun-19 08:59N 36°49' W 008°05'1 2.9
2018-Jun-19 08:29N 36°50' W 008°03'19 0.9
2018-Jun-18 10:41N 36°49' W 008°27'0 2.4
2018-Jun-18 10:30N 36°49' W 008°27'1 1.6
2018-Jun-18 10:00N 36°49' W 008°26'2 3.1
2018-Jun-18 09:30N 36°49' W 008°24'2 3.1
2018-Jun-18 09:00N 36°49' W 008°22'1 3.1
2018-Jun-18 08:30N 36°49' W 008°20'2 3.0
2018-Jun-18 07:54N 36°48' W 008°18'1 3.0
2018-Jun-18 07:31N 36°48' W 008°16'1 2.9
2018-Jun-18 07:00N 36°49' W 008°15'1 2.8
2018-Jun-18 06:30N 36°49' W 008°13'2 3.3
2018-Jun-18 06:00N 36°49' W 008°11'4 7.6
2018-Jun-18 05:30N 36°45' W 008°09'2 4.1
2018-Jun-18 05:00N 36°44' W 008°07'4 8.6
2018-Jun-18 04:30N 36°48' W 008°04'4 8.6
2018-Jun-18 04:00N 36°51' W 008°00'7 8.9
2018-Jun-18 03:10N 36°56' W 007°53'14 0.8
2018-Jun-17 09:23N 36°49' W 008°09'0 0.3
2018-Jun-17 09:00N 36°49' W 008°09'1 2.6
2018-Jun-17 08:29N 36°49' W 008°07'1 2.9
2018-Jun-17 08:00N 36°49' W 008°05'1 3.0
2018-Jun-17 07:30N 36°50' W 008°04'2 3.2
2018-Jun-17 06:59N 36°50' W 008°02'2 3.1
2018-Jun-17 06:30N 36°50' W 007°60'2 3.2
2018-Jun-17 05:53N 36°51' W 007°58'1 3.1
2018-Jun-17 05:29N 36°52' W 007°56'13 1.3
2018-Jun-16 19:15N 36°47' W 008°12'2 6.5
2018-Jun-16 19:00N 36°48' W 008°13'1 1.1
2018-Jun-16 18:30N 36°48' W 008°12'1 2.8
2018-Jun-16 18:01N 36°48' W 008°10'1 2.9
2018-Jun-16 17:31N 36°49' W 008°09'1 2.9
2018-Jun-16 17:00N 36°49' W 008°07'1 2.9
2018-Jun-16 16:30N 36°49' W 008°05'1 2.9
2018-Jun-16 16:00N 36°50' W 008°03'2 3.0
2018-Jun-16 15:27N 36°50' W 008°01'1 3.1
2018-Jun-16 15:00N 36°51' W 007°60'2 3.1
2018-Jun-16 14:30N 36°51' W 007°58'1 2.9
2018-Jun-16 14:00N 36°52' W 007°56'1 2.0
2018-Jun-16 13:23N 36°52' W 007°55'11 2.9
2018-Jun-16 09:26N 36°49' W 008°08'0 1.0
2018-Jun-16 09:00N 36°49' W 008°08'2 3.0
2018-Jun-16 08:26N 36°49' W 008°06'11 1.7
2018-Jun-16 01:56N 36°47' W 007°52'1 2.9
2018-Jun-16 01:27N 36°46' W 007°51'1 2.8
2018-Jun-16 00:58N 36°46' W 007°49'3 2.8
2018-Jun-15 23:45N 36°45' W 007°45'1 2.9
2018-Jun-15 23:29N 36°44' W 007°44'1 2.8
2018-Jun-15 22:59N 36°43' W 007°43'1 2.7
2018-Jun-15 22:29N 36°42' W 007°42'2 3.4
2018-Jun-15 22:00N 36°41' W 007°40'0 0.8
2018-Jun-15 21:25N 36°42' W 007°41'15 2.8
2018-Jun-15 16:05N 36°46' W 007°59'1 6.4
2018-Jun-15 15:53N 36°45' W 008°00'3 6.7
2018-Jun-15 15:30N 36°46' W 008°03'4 8.8
2018-Jun-15 15:00N 36°49' W 008°08'5 2.7
2018-Jun-15 12:58N 36°48' W 008°15'9 3.2
2018-Jun-15 10:10N 36°49' W 008°26'0 1.4
2018-Jun-15 10:00N 36°49' W 008°26'1 1.6
2018-Jun-15 09:30N 36°49' W 008°25'1 2.9
2018-Jun-15 09:00N 36°49' W 008°23'1 3.0
2018-Jun-15 08:30N 36°49' W 008°21'2 3.0
2018-Jun-15 08:00N 36°48' W 008°19'1 3.0
2018-Jun-15 07:30N 36°48' W 008°18'1 3.0
2018-Jun-15 07:00N 36°48' W 008°16'1 2.9
2018-Jun-15 06:30N 36°49' W 008°14'1 2.9
2018-Jun-15 06:00N 36°49' W 008°12'2 3.5
2018-Jun-15 05:30N 36°49' W 008°10'4 7.1
2018-Jun-15 05:00N 36°50' W 008°06'2 0.2
2018-Jun-14 15:44N 36°51' W 008°03'1 2.9
2018-Jun-14 15:20N 36°51' W 008°01'1 2.9
2018-Jun-14 15:00N 36°51' W 008°00'2 3.0
2018-Jun-14 14:26N 36°51' W 007°58'8 1.7
2018-Jun-14 09:59N 36°49' W 008°07'2 3.0
2018-Jun-14 09:25N 36°50' W 008°05'1 3.0
2018-Jun-14 09:00N 36°50' W 008°04'2 3.0
2018-Jun-14 08:30N 36°50' W 008°02'  
Track history (hours):
 
Tides and Currents Weather Stations Pressure Air Temp Water Temp Dewpoint Dewpoint Depression Visibility Wind Speed Wind Dir Waves Ship Positions

Nuno Pinto

Last reported at 2018-Jun-24 08:30 UTC. Time now 2018-Jun-24 12:34 UTC.
Position N 36°58' W 009°08'.

Length 23 m.

Type: Fishing. MMSI: 263401250.

Date/timePositionNaut miles runAvg speedWind from/ knotsBaromVisibWave heightAir tempDewpointWater temp
2018-Jun-24 08:30N 36°58' W 009°08'3 3.0
2018-Jun-24 07:37N 36°56' W 009°07'1 2.9
2018-Jun-24 07:26N 36°55' W 009°07'3 2.9
2018-Jun-24 06:22N 36°52' W 009°07'1 2.9
2018-Jun-24 05:59N 36°51' W 009°07'2 2.9
2018-Jun-24 05:23N 36°50' W 009°08'8 0.2
2018-Jun-22 20:35N 36°58' W 009°08'0 3.2
2018-Jun-22 20:29N 36°57' W 009°08'5 0.3
2018-Jun-21 23:42N 36°60' W 009°02'2 7.9
2018-Jun-21 23:30N 36°59' W 008°60'4 6.5
2018-Jun-21 22:55N 37°01' W 008°56'0 0.0
2018-Jun-21 18:43N 37°01' W 008°55'11 0.8
2018-Jun-21 05:03N 36°57' W 009°08'0 2.9
2018-Jun-21 04:54N 36°56' W 009°08'1 2.8
2018-Jun-21 04:30N 36°55' W 009°08'1 2.9
2018-Jun-21 03:59N 36°54' W 009°08'1 2.9
2018-Jun-21 03:29N 36°52' W 009°08'2 3.1
2018-Jun-21 02:56N 36°50' W 009°09'2 2.8
2018-Jun-21 02:07N 36°48' W 009°09'1 3.3
2018-Jun-21 01:52N 36°47' W 009°09'51 1.2
2018-Jun-19 09:07N 36°49' W 008°05'0 3.0
2018-Jun-19 08:59N 36°49' W 008°05'1 2.9
2018-Jun-19 08:29N 36°50' W 008°03'19 0.9
2018-Jun-18 10:41N 36°49' W 008°27'0 2.4
2018-Jun-18 10:30N 36°49' W 008°27'1 1.6
2018-Jun-18 10:00N 36°49' W 008°26'2 3.1
2018-Jun-18 09:30N 36°49' W 008°24'2 3.1
2018-Jun-18 09:00N 36°49' W 008°22'1 3.1
2018-Jun-18 08:30N 36°49' W 008°20'2 3.0
2018-Jun-18 07:54N 36°48' W 008°18'1 3.0
2018-Jun-18 07:31N 36°48' W 008°16'1 2.9
2018-Jun-18 07:00N 36°49' W 008°15'1 2.8
2018-Jun-18 06:30N 36°49' W 008°13'2 3.3
2018-Jun-18 06:00N 36°49' W 008°11'4 7.6
2018-Jun-18 05:30N 36°45' W 008°09'2 4.1
2018-Jun-18 05:00N 36°44' W 008°07'4 8.6
2018-Jun-18 04:30N 36°48' W 008°04'4 8.6
2018-Jun-18 04:00N 36°51' W 008°00'7 8.9
2018-Jun-18 03:10N 36°56' W 007°53'14 0.8
2018-Jun-17 09:23N 36°49' W 008°09'0 0.3
2018-Jun-17 09:00N 36°49' W 008°09'1 2.6
2018-Jun-17 08:29N 36°49' W 008°07'1 2.9
2018-Jun-17 08:00N 36°49' W 008°05'1 3.0
2018-Jun-17 07:30N 36°50' W 008°04'2 3.2
2018-Jun-17 06:59N 36°50' W 008°02'2 3.1
2018-Jun-17 06:30N 36°50' W 007°60'2 3.2
2018-Jun-17 05:53N 36°51' W 007°58'1 3.1
2018-Jun-17 05:29N 36°52' W 007°56'13 1.3
2018-Jun-16 19:15N 36°47' W 008°12'2 6.5
2018-Jun-16 19:00N 36°48' W 008°13'1 1.1
2018-Jun-16 18:30N 36°48' W 008°12'1 2.8
2018-Jun-16 18:01N 36°48' W 008°10'1 2.9
2018-Jun-16 17:31N 36°49' W 008°09'1 2.9
2018-Jun-16 17:00N 36°49' W 008°07'1 2.9
2018-Jun-16 16:30N 36°49' W 008°05'1 2.9
2018-Jun-16 16:00N 36°50' W 008°03'2 3.0
2018-Jun-16 15:27N 36°50' W 008°01'1 3.1
2018-Jun-16 15:00N 36°51' W 007°60'2 3.1
2018-Jun-16 14:30N 36°51' W 007°58'1 2.9
2018-Jun-16 14:00N 36°52' W 007°56'1 2.0
2018-Jun-16 13:23N 36°52' W 007°55'11 2.9
2018-Jun-16 09:26N 36°49' W 008°08'0 1.0
2018-Jun-16 09:00N 36°49' W 008°08'2 3.0
2018-Jun-16 08:26N 36°49' W 008°06'11 1.7
2018-Jun-16 01:56N 36°47' W 007°52'1 2.9
2018-Jun-16 01:27N 36°46' W 007°51'1 2.8
2018-Jun-16 00:58N 36°46' W 007°49'3 2.8
2018-Jun-15 23:45N 36°45' W 007°45'1 2.9
2018-Jun-15 23:29N 36°44' W 007°44'1 2.8
2018-Jun-15 22:59N 36°43' W 007°43'1 2.7
2018-Jun-15 22:29N 36°42' W 007°42'2 3.4
2018-Jun-15 22:00N 36°41' W 007°40'0 0.8
2018-Jun-15 21:25N 36°42' W 007°41'15 2.8
2018-Jun-15 16:05N 36°46' W 007°59'1 6.4
2018-Jun-15 15:53N 36°45' W 008°00'3 6.7
2018-Jun-15 15:30N 36°46' W 008°03'4 8.8
2018-Jun-15 15:00N 36°49' W 008°08'5 2.7
2018-Jun-15 12:58N 36°48' W 008°15'9 3.2
2018-Jun-15 10:10N 36°49' W 008°26'0 1.4
2018-Jun-15 10:00N 36°49' W 008°26'1 1.6
2018-Jun-15 09:30N 36°49' W 008°25'1 2.9
2018-Jun-15 09:00N 36°49' W 008°23'1 3.0
2018-Jun-15 08:30N 36°49' W 008°21'2 3.0
2018-Jun-15 08:00N 36°48' W 008°19'1 3.0
2018-Jun-15 07:30N 36°48' W 008°18'1 3.0
2018-Jun-15 07:00N 36°48' W 008°16'1 2.9
2018-Jun-15 06:30N 36°49' W 008°14'1 2.9
2018-Jun-15 06:00N 36°49' W 008°12'2 3.5
2018-Jun-15 05:30N 36°49' W 008°10'4 7.1
2018-Jun-15 05:00N 36°50' W 008°06'2 0.2
2018-Jun-14 15:44N 36°51' W 008°03'1 2.9
2018-Jun-14 15:20N 36°51' W 008°01'1 2.9
2018-Jun-14 15:00N 36°51' W 008°00'2 3.0
2018-Jun-14 14:26N 36°51' W 007°58'8 1.7
2018-Jun-14 09:59N 36°49' W 008°07'2 3.0
2018-Jun-14 09:25N 36°50' W 008°05'1 3.0
2018-Jun-14 09:00N 36°50' W 008°04'2 3.0
2018-Jun-14 08:30N 36°50' W 008°02'  

Dump ship's entire track history